createdAt,value
2019-03-12T00:00:32.532Z,63.30
2019-03-12T00:02:59.544Z,63.70
2019-03-12T00:05:26.494Z,63.00
2019-03-12T00:07:53.395Z,63.90
2019-03-12T00:10:20.357Z,63.80
2019-03-12T00:12:47.321Z,63.50
2019-03-12T00:15:14.361Z,63.60
2019-03-12T00:17:41.284Z,63.50
2019-03-12T00:20:08.233Z,63.10
2019-03-12T00:22:35.245Z,63.40
2019-03-12T00:25:02.488Z,63.50
2019-03-12T00:27:30.461Z,63.10
2019-03-12T00:29:57.469Z,62.90
2019-03-12T00:32:24.524Z,63.80
2019-03-12T00:34:51.470Z,63.00
2019-03-12T00:37:20.213Z,62.90
2019-03-12T00:39:47.216Z,62.90
2019-03-12T00:42:14.246Z,63.20
2019-03-12T00:44:41.274Z,63.10
2019-03-12T00:47:08.241Z,63.40
2019-03-12T00:49:35.209Z,63.20
2019-03-12T00:52:02.312Z,65.00
2019-03-12T00:54:30.585Z,64.00
2019-03-12T00:56:57.539Z,64.30
2019-03-12T00:59:24.859Z,64.10
2019-03-12T01:01:52.316Z,64.20
2019-03-12T01:04:19.193Z,64.30
2019-03-12T01:06:46.237Z,64.40
2019-03-12T01:09:13.187Z,64.20
2019-03-12T01:11:40.236Z,64.30
2019-03-12T01:14:07.502Z,64.60
2019-03-12T01:16:34.580Z,64.20
2019-03-12T01:19:01.703Z,65.80
2019-03-12T01:21:28.661Z,65.90
2019-03-12T01:23:55.704Z,65.60
2019-03-12T01:26:22.668Z,65.80
2019-03-12T01:28:49.600Z,66.00
2019-03-12T01:31:16.645Z,66.10
2019-03-12T01:33:43.557Z,66.90
2019-03-12T01:36:10.738Z,66.80
2019-03-12T01:38:39.587Z,66.60
2019-03-12T01:41:06.569Z,66.90
2019-03-12T01:43:33.598Z,67.10
2019-03-12T01:46:00.565Z,65.90
2019-03-12T01:48:27.636Z,66.00
2019-03-12T01:50:54.604Z,66.20
2019-03-12T01:53:21.549Z,66.00
2019-03-12T01:55:48.496Z,66.70
2019-03-12T01:58:15.512Z,66.80
2019-03-12T02:00:42.620Z,66.70
2019-03-12T02:03:09.678Z,65.70
2019-03-12T02:05:36.596Z,67.00
2019-03-12T02:08:03.680Z,67.50
2019-03-12T02:10:30.734Z,67.30
2019-03-12T02:12:59.477Z,67.10
2019-03-12T02:15:26.566Z,67.20
2019-03-12T02:17:53.490Z,67.60
2019-03-12T02:20:21.574Z,67.50
2019-03-12T02:22:48.502Z,68.00
2019-03-12T02:25:15.488Z,68.50
2019-03-12T02:27:42.460Z,68.10
2019-03-12T02:30:12.041Z,68.50
2019-03-12T02:32:38.966Z,68.20
2019-03-12T02:35:05.942Z,68.40
2019-03-12T02:37:34.808Z,68.70
2019-03-12T02:40:01.922Z,67.60
2019-03-12T02:42:28.916Z,68.40
2019-03-12T02:44:55.953Z,67.70
2019-03-12T02:47:23.024Z,68.60
2019-03-12T02:49:50.002Z,67.80
2019-03-12T02:52:17.055Z,67.60
2019-03-12T02:54:44.083Z,69.10
2019-03-12T02:57:11.361Z,68.90
2019-03-12T02:59:38.242Z,68.90
2019-03-12T03:02:05.226Z,69.80
2019-03-12T03:04:32.280Z,69.70
2019-03-12T03:07:01.095Z,69.70
2019-03-12T03:09:28.152Z,69.60
2019-03-12T03:11:55.065Z,69.10
2019-03-12T03:14:35.826Z,70.40
2019-03-12T03:17:03.314Z,70.70
2019-03-12T03:19:31.748Z,72.30
2019-03-12T03:21:58.690Z,72.10
2019-03-12T03:24:26.911Z,72.30
2019-03-12T03:26:54.022Z,72.30
2019-03-12T03:29:20.982Z,72.30
2019-03-12T03:31:48.349Z,72.30
2019-03-12T03:34:15.353Z,72.20
2019-03-12T03:36:42.376Z,72.20
2019-03-12T03:39:11.142Z,72.20
2019-03-12T03:41:40.858Z,71.90
2019-03-12T03:44:07.885Z,71.80
2019-03-12T03:46:34.965Z,72.10
2019-03-12T03:49:02.993Z,72.10
2019-03-12T03:51:30.007Z,72.50
2019-03-12T03:53:57.074Z,73.30
2019-03-12T03:56:24.044Z,73.80
2019-03-12T03:58:51.114Z,73.10
2019-03-12T04:01:18.223Z,74.00
2019-03-12T04:03:46.626Z,73.50
2019-03-12T04:06:13.744Z,73.00
2019-03-12T04:08:42.230Z,73.20
2019-03-12T04:11:10.030Z,73.80
2019-03-12T04:13:38.136Z,73.90
2019-03-12T04:16:05.189Z,73.60
2019-03-12T04:18:32.187Z,73.40
2019-03-12T04:20:59.110Z,73.90
2019-03-12T04:23:26.324Z,73.90
2019-03-12T04:25:55.005Z,73.10
2019-03-12T04:28:22.120Z,74.60
2019-03-12T04:30:49.102Z,74.10
2019-03-12T04:33:52.874Z,73.90
2019-03-12T04:36:19.952Z,74.20
2019-03-12T04:38:46.990Z,73.40
2019-03-12T04:41:14.001Z,74.70
2019-03-12T04:43:40.886Z,73.60
2019-03-12T04:46:07.859Z,74.80
2019-03-12T04:48:34.899Z,73.60
2019-03-12T04:51:02.024Z,73.50
2019-03-12T04:53:29.077Z,75.30
2019-03-12T04:55:56.052Z,74.80
2019-03-12T04:58:22.994Z,75.30
2019-03-12T05:00:49.989Z,76.00
2019-03-12T05:03:17.010Z,76.10
2019-03-12T05:05:43.996Z,74.60
2019-03-12T05:08:11.044Z,76.00
2019-03-12T05:10:38.022Z,74.30
2019-03-12T05:13:04.964Z,74.60
2019-03-12T05:15:31.844Z,75.30
2019-03-12T05:17:58.856Z,75.40
2019-03-12T05:20:27.602Z,75.10
2019-03-12T05:22:54.522Z,76.20
2019-03-12T05:25:23.293Z,75.90
2019-03-12T05:27:50.242Z,76.30
2019-03-12T05:30:17.373Z,76.40
2019-03-12T05:32:44.383Z,76.10
2019-03-12T05:35:13.244Z,76.10
2019-03-12T05:37:40.157Z,75.80
2019-03-12T05:40:07.636Z,77.00
2019-03-12T05:42:34.661Z,76.10
2019-03-12T05:45:01.636Z,77.20
2019-03-12T05:47:28.742Z,76.90
2019-03-12T05:49:55.949Z,76.30
2019-03-12T05:52:23.025Z,76.30
2019-03-12T05:54:50.157Z,76.10
2019-03-12T05:57:17.155Z,75.60
2019-03-12T05:59:45.371Z,76.80
2019-03-12T06:02:12.341Z,76.30
2019-03-12T06:04:39.434Z,76.70
2019-03-12T06:07:06.595Z,76.50
2019-03-12T06:09:33.600Z,77.20
2019-03-12T06:12:00.605Z,76.70
2019-03-12T06:14:27.691Z,76.70
2019-03-12T06:16:54.564Z,76.40
2019-03-12T06:19:21.533Z,76.70
2019-03-12T06:21:48.524Z,76.90
2019-03-12T06:24:15.462Z,78.90
2019-03-12T06:26:42.424Z,78.20
2019-03-12T06:29:09.292Z,79.10
2019-03-12T06:31:38.133Z,79.40
2019-03-12T06:34:07.070Z,79.00
2019-03-12T06:36:35.932Z,78.80
2019-03-12T06:39:09.517Z,77.90
2019-03-12T06:41:41.026Z,77.60
2019-03-12T06:44:13.079Z,76.20
2019-03-12T06:46:44.935Z,76.70
2019-03-12T06:49:16.723Z,76.00
2019-03-12T06:52:02.644Z,76.30
2019-03-12T06:54:31.497Z,75.30
2019-03-12T06:57:12.257Z,76.20
2019-03-12T06:59:46.968Z,76.10
2019-03-12T07:02:25.033Z,76.30
2019-03-12T07:04:53.900Z,75.60
2019-03-12T07:07:41.749Z,73.80
2019-03-12T07:10:18.699Z,73.30
2019-03-12T07:12:53.411Z,73.50
2019-03-12T07:15:28.152Z,73.40
2019-03-12T07:18:04.302Z,73.50
2019-03-12T07:20:33.221Z,73.00
2019-03-12T07:23:04.856Z,71.90
2019-03-12T07:25:42.333Z,72.80
2019-03-12T07:28:11.220Z,72.40
2019-03-12T07:30:40.048Z,71.50
2019-03-12T07:33:21.103Z,71.20
2019-03-12T07:35:59.208Z,71.20
2019-03-12T07:38:30.767Z,70.70
2019-03-12T07:41:08.665Z,70.60
2019-03-12T07:43:37.571Z,71.10
2019-03-12T07:46:15.419Z,71.30
2019-03-12T07:48:44.287Z,71.00
2019-03-12T07:51:15.927Z,70.50
2019-03-12T07:53:44.843Z,71.00
2019-03-12T07:56:16.433Z,69.60
2019-03-12T07:58:48.145Z,69.70
2019-03-12T08:01:25.736Z,69.00
2019-03-12T08:04:11.239Z,67.70
2019-03-12T08:06:40.073Z,68.80
2019-03-12T08:09:24.153Z,68.50
2019-03-12T08:11:53.085Z,67.20
2019-03-12T08:14:26.899Z,67.00
2019-03-12T08:17:12.130Z,67.20
2019-03-12T08:19:53.259Z,65.90
2019-03-12T08:22:34.563Z,66.10
2019-03-12T08:25:12.229Z,57.80
2019-03-12T08:27:56.604Z,51.90
2019-03-12T08:30:27.227Z,46.50
2019-03-12T08:33:11.252Z,43.80
2019-03-12T08:35:49.212Z,42.40
2019-03-12T08:38:18.222Z,42.70
2019-03-12T08:40:52.419Z,45.30
2019-03-12T08:43:20.763Z,47.00
2019-03-12T08:45:55.561Z,47.90
2019-03-12T08:48:27.357Z,48.80
2019-03-12T08:51:05.760Z,50.40
2019-03-12T08:53:41.980Z,52.10
2019-03-12T08:56:14.084Z,53.40
2019-03-12T08:58:42.934Z,54.10
2019-03-12T09:01:28.662Z,53.50
2019-03-12T09:04:06.091Z,54.70
2019-03-12T09:06:43.661Z,54.40
2019-03-12T09:09:29.440Z,55.30
2019-03-12T09:12:00.979Z,54.90
2019-03-12T09:14:30.048Z,54.80
2019-03-12T09:17:15.219Z,55.40
2019-03-12T09:20:02.383Z,54.70
2019-03-12T09:22:48.063Z,55.30
2019-03-12T09:25:25.701Z,54.30
2019-03-12T09:28:11.044Z,55.30
2019-03-12T09:30:42.926Z,54.10
2019-03-12T09:33:11.782Z,53.60
2019-03-12T09:35:45.441Z,53.80
2019-03-12T09:38:31.184Z,53.40
2019-03-12T09:41:02.765Z,53.00
2019-03-12T09:43:48.161Z,53.10
2019-03-12T09:46:35.692Z,52.90
2019-03-12T09:49:04.706Z,52.50
2019-03-12T09:51:33.765Z,53.00
2019-03-12T09:54:19.347Z,51.00
2019-03-12T09:57:04.526Z,50.90
2019-03-12T09:59:40.469Z,50.90
2019-03-12T10:02:12.005Z,50.70
2019-03-12T10:04:40.971Z,50.20
2019-03-12T10:07:26.527Z,51.60
2019-03-12T10:10:07.098Z,49.80
2019-03-12T10:12:36.047Z,48.10
2019-03-12T10:15:08.531Z,48.00
2019-03-12T10:17:54.390Z,48.40
2019-03-12T10:20:38.148Z,47.80
2019-03-12T10:23:23.378Z,47.80
2019-03-12T10:25:52.271Z,49.00
2019-03-12T10:28:27.369Z,48.60
2019-03-12T10:30:56.328Z,48.90
2019-03-12T10:33:28.119Z,48.00
2019-03-12T10:35:59.814Z,47.60
2019-03-12T10:39:08.891Z,48.00
2019-03-12T10:41:37.783Z,47.40
2019-03-12T10:44:09.355Z,46.50
2019-03-12T10:46:38.247Z,45.80
2019-03-12T10:49:07.077Z,45.00
2019-03-12T10:51:35.914Z,44.90
2019-03-12T10:54:02.822Z,45.00
2019-03-12T10:56:29.837Z,44.50
2019-03-12T10:58:56.818Z,44.00
2019-03-12T11:01:23.784Z,44.90
2019-03-12T11:03:50.743Z,44.90
2019-03-12T11:06:17.976Z,44.70
2019-03-12T11:08:45.161Z,44.60
2019-03-12T11:11:12.256Z,43.70
2019-03-12T11:13:39.219Z,43.20
2019-03-12T11:16:06.490Z,42.80
2019-03-12T11:18:33.501Z,43.10
2019-03-12T11:21:00.584Z,42.80
2019-03-12T11:23:29.410Z,42.40
2019-03-12T11:25:56.442Z,42.70
2019-03-12T11:28:26.548Z,42.00
2019-03-12T11:30:52.352Z,41.90
2019-03-12T11:33:19.235Z,42.50
2019-03-12T11:35:46.156Z,42.10
2019-03-12T11:38:13.106Z,42.00
2019-03-12T11:40:40.112Z,41.70
2019-03-12T11:43:07.486Z,41.50
2019-03-12T11:45:36.464Z,41.20
2019-03-12T11:48:03.577Z,41.70
2019-03-12T11:50:31.056Z,41.60
2019-03-12T11:52:59.640Z,41.60
2019-03-12T11:55:27.138Z,41.30
2019-03-12T11:57:54.291Z,41.40
2019-03-12T12:00:26.254Z,40.70
2019-03-12T12:02:59.931Z,40.20
2019-03-12T12:05:22.137Z,40.20
2019-03-12T12:07:49.270Z,40.20
2019-03-12T12:10:16.732Z,40.20
2019-03-12T12:12:43.813Z,40.20
2019-03-12T12:15:11.353Z,40.10
2019-03-12T12:17:38.530Z,39.90
2019-03-12T12:20:06.656Z,40.10
2019-03-12T12:22:33.544Z,40.20
2019-03-12T12:25:00.615Z,39.40
2019-03-12T12:27:27.588Z,38.60
2019-03-12T12:29:54.685Z,39.20
2019-03-12T12:32:21.600Z,40.00
2019-03-12T12:34:48.586Z,39.30
2019-03-12T12:37:15.549Z,38.70
2019-03-12T12:39:42.606Z,38.90
2019-03-12T12:42:09.550Z,38.90
2019-03-12T12:44:36.538Z,38.90
2019-03-12T12:47:05.319Z,37.90
2019-03-12T12:49:32.363Z,38.10
2019-03-12T12:51:59.334Z,37.40
2019-03-12T12:54:26.228Z,38.20
2019-03-12T12:56:53.232Z,37.70
2019-03-12T12:59:20.286Z,37.00
2019-03-12T13:01:47.284Z,36.80
2019-03-12T13:04:14.244Z,37.40
2019-03-12T13:06:41.237Z,37.40
2019-03-12T13:09:09.497Z,36.80
2019-03-12T13:11:36.479Z,36.90
2019-03-12T13:14:03.583Z,36.40
2019-03-12T13:16:30.540Z,36.30
2019-03-12T13:18:57.519Z,36.40
2019-03-12T13:21:24.570Z,36.80
2019-03-12T13:23:51.527Z,35.70
2019-03-12T13:26:18.477Z,35.10
2019-03-12T13:28:45.372Z,35.40
2019-03-12T13:31:12.308Z,33.90
2019-03-12T13:33:39.207Z,33.20
2019-03-12T13:36:08.149Z,33.60
2019-03-12T13:38:45.135Z,33.60
2019-03-12T13:41:04.146Z,33.40
2019-03-12T13:43:31.146Z,32.90
2019-03-12T13:45:58.154Z,32.40
2019-03-12T13:48:25.280Z,31.30
2019-03-12T13:50:52.333Z,31.20
2019-03-12T13:53:19.373Z,31.20
2019-03-12T13:55:46.333Z,31.60
2019-03-12T13:58:15.009Z,32.50
2019-03-12T14:00:43.101Z,33.00
2019-03-12T14:03:10.104Z,33.00
2019-03-12T14:05:37.095Z,33.00
2019-03-12T14:08:04.072Z,33.20
2019-03-12T14:10:31.081Z,33.40
2019-03-12T14:12:59.248Z,32.90
2019-03-12T14:15:27.545Z,33.10
2019-03-12T14:17:54.820Z,33.10
2019-03-12T14:20:47.947Z,33.20
2019-03-12T14:23:26.465Z,32.70
2019-03-12T14:25:53.368Z,32.70
2019-03-12T14:28:20.519Z,32.40
2019-03-12T14:30:47.377Z,32.50
2019-03-12T14:33:14.602Z,32.90
2019-03-12T14:35:50.676Z,34.10
2019-03-12T14:38:10.519Z,35.60
2019-03-12T14:40:37.527Z,37.00
2019-03-12T14:43:24.526Z,37.00
2019-03-12T14:45:53.668Z,37.70
2019-03-12T14:48:46.257Z,37.20
2019-03-12T14:51:17.212Z,37.30
2019-03-12T14:53:44.661Z,37.50
2019-03-12T14:56:11.716Z,37.50
2019-03-12T14:58:42.600Z,37.90
2019-03-12T15:01:12.961Z,37.60
2019-03-12T15:03:48.065Z,37.60
2019-03-12T15:06:16.161Z,37.80
2019-03-12T15:09:11.453Z,37.70
2019-03-12T15:11:29.492Z,37.10
2019-03-12T15:14:12.672Z,37.10
2019-03-12T15:16:49.759Z,36.80
2019-03-12T15:19:23.110Z,37.10
2019-03-12T15:21:50.614Z,37.70
2019-03-12T15:24:19.852Z,37.70
2019-03-12T15:26:57.199Z,38.30
2019-03-12T15:29:36.077Z,38.40
2019-03-12T15:32:13.022Z,38.40
2019-03-12T15:34:51.542Z,37.20
2019-03-12T15:37:32.440Z,37.20
2019-03-12T15:40:15.304Z,36.70
2019-03-12T15:43:08.933Z,36.50
2019-03-12T15:45:38.908Z,35.80
2019-03-12T15:48:13.638Z,36.60
2019-03-12T15:50:44.202Z,36.40
2019-03-12T15:53:29.467Z,36.10
2019-03-12T15:56:03.648Z,36.10
2019-03-12T15:58:34.954Z,36.00
2019-03-12T16:01:20.449Z,35.70
2019-03-12T16:03:53.362Z,35.80
2019-03-12T16:06:26.600Z,36.20
2019-03-12T16:09:21.659Z,36.20
2019-03-12T16:11:57.918Z,36.30
2019-03-12T16:14:31.865Z,36.50
2019-03-12T16:16:59.394Z,36.50
2019-03-12T16:19:47.233Z,36.60
2019-03-12T16:22:19.519Z,36.70
2019-03-12T16:24:55.091Z,37.00
2019-03-12T16:27:37.570Z,36.80
2019-03-12T16:30:27.852Z,37.30
2019-03-12T16:33:11.330Z,36.90
2019-03-12T16:35:48.651Z,37.10
2019-03-12T16:38:23.805Z,36.90
2019-03-12T16:40:54.956Z,36.60
2019-03-12T16:43:25.116Z,36.50
2019-03-12T16:45:52.616Z,36.40
2019-03-12T16:48:20.078Z,36.60
2019-03-12T16:50:52.585Z,36.50
2019-03-12T16:53:33.156Z,36.50
2019-03-12T16:56:00.678Z,35.70
2019-03-12T16:58:31.312Z,36.00
2019-03-12T17:01:02.919Z,35.60
2019-03-12T17:03:32.540Z,36.00
2019-03-12T17:06:06.947Z,36.10
2019-03-12T17:08:38.203Z,36.10
2019-03-12T17:11:11.819Z,35.90
2019-03-12T17:13:43.044Z,35.30
2019-03-12T17:16:21.779Z,35.40
2019-03-12T17:18:57.708Z,35.20
2019-03-12T17:21:38.355Z,34.90
2019-03-12T17:24:17.539Z,34.70
2019-03-12T17:26:48.560Z,34.20
2019-03-12T17:29:16.279Z,34.50
2019-03-12T17:32:04.922Z,34.20
2019-03-12T17:34:37.126Z,34.30
2019-03-12T17:37:09.393Z,33.90
2019-03-12T17:39:41.875Z,33.70
2019-03-12T17:42:24.307Z,33.50
2019-03-12T17:44:54.923Z,33.20
2019-03-12T17:47:36.523Z,33.10
2019-03-12T17:50:12.397Z,33.40
2019-03-12T17:52:45.306Z,33.40
2019-03-12T17:55:20.493Z,33.00
2019-03-12T17:57:54.534Z,32.70
2019-03-12T18:00:31.178Z,32.10
2019-03-12T18:02:59.660Z,32.20
2019-03-12T18:05:31.314Z,31.70
2019-03-12T18:08:06.993Z,32.60
2019-03-12T18:10:36.381Z,32.60
2019-03-12T18:13:13.871Z,31.80
2019-03-12T18:15:44.194Z,31.30
2019-03-12T18:18:23.148Z,31.60
2019-03-12T18:20:51.530Z,31.20
2019-03-12T18:23:27.343Z,30.90
2019-03-12T18:26:04.226Z,30.70
2019-03-12T18:28:34.729Z,30.80
2019-03-12T18:31:08.787Z,30.20
2019-03-12T18:33:43.346Z,30.40
2019-03-12T18:36:24.834Z,30.40
2019-03-12T18:39:04.889Z,30.50
2019-03-12T18:41:37.720Z,30.80
2019-03-12T18:44:12.190Z,30.60
2019-03-12T18:46:43.075Z,31.00
2019-03-12T18:49:16.736Z,30.90
2019-03-12T18:51:51.650Z,31.00
2019-03-12T18:54:34.187Z,31.00
2019-03-12T18:57:06.256Z,30.90
2019-03-12T18:59:41.830Z,31.10
2019-03-12T19:02:18.933Z,31.70
2019-03-12T19:05:00.393Z,31.30
2019-03-12T19:07:40.033Z,31.60
2019-03-12T19:10:12.773Z,32.30
2019-03-12T19:13:12.704Z,32.60
2019-03-12T19:15:51.963Z,32.90
2019-03-12T19:18:44.412Z,32.80
2019-03-12T19:21:18.499Z,33.40
2019-03-12T19:24:18.580Z,33.80
2019-03-12T19:26:48.551Z,33.10
2019-03-12T19:29:23.914Z,33.70
2019-03-12T19:32:07.679Z,33.70
2019-03-12T19:34:42.662Z,33.70
2019-03-12T19:37:13.004Z,34.50
2019-03-12T19:39:52.730Z,34.50
2019-03-12T19:42:22.703Z,34.50
2019-03-12T19:45:03.722Z,34.60
2019-03-12T19:47:32.259Z,34.30
2019-03-12T19:50:02.966Z,34.10
2019-03-12T19:52:31.602Z,34.70
2019-03-12T19:55:02.008Z,35.20
2019-03-12T19:57:34.442Z,35.10
2019-03-12T20:00:06.171Z,34.90
2019-03-12T20:02:42.420Z,35.20
2019-03-12T20:05:21.477Z,35.20
2019-03-12T20:07:56.113Z,35.60
2019-03-12T20:11:17.183Z,35.60
2019-03-12T20:14:34.196Z,35.50
2019-03-12T20:17:32.204Z,35.30
2019-03-12T20:20:39.141Z,35.20
2019-03-12T20:24:07.296Z,35.50
2019-03-12T20:27:36.971Z,35.70
2019-03-12T20:30:45.192Z,35.60
2019-03-12T20:34:39.683Z,35.50
2019-03-12T20:37:53.114Z,35.70
2019-03-12T20:41:10.077Z,35.60
2019-03-12T20:44:13.541Z,35.60
2019-03-12T20:47:24.404Z,35.70
2019-03-12T20:50:19.738Z,35.50
2019-03-12T20:53:45.417Z,35.60
2019-03-12T20:57:02.249Z,35.50
2019-03-12T21:00:28.130Z,35.90
2019-03-12T21:03:29.682Z,36.00
2019-03-12T21:06:35.222Z,36.00
2019-03-12T21:09:43.080Z,36.10
2019-03-12T21:13:01.435Z,36.40
2019-03-12T21:16:06.891Z,36.40
2019-03-12T21:19:24.363Z,36.70
2019-03-12T21:22:28.988Z,36.60
2019-03-12T21:25:36.562Z,37.20
2019-03-12T21:28:38.855Z,37.10
2019-03-12T21:31:15.208Z,37.30
2019-03-12T21:33:48.614Z,37.60
2019-03-12T21:36:26.834Z,38.20
2019-03-12T21:38:56.937Z,38.30
2019-03-12T21:41:30.037Z,39.00
2019-03-12T21:43:59.218Z,39.10
2019-03-12T21:46:32.259Z,39.60
2019-03-12T21:49:07.855Z,40.20
2019-03-12T21:51:46.885Z,41.40
2019-03-12T21:54:23.964Z,41.90
2019-03-12T21:56:56.190Z,42.70
2019-03-12T21:59:29.493Z,43.30
2019-03-12T22:01:56.702Z,43.40
2019-03-12T22:04:23.803Z,43.60
2019-03-12T22:06:51.111Z,44.30
2019-03-12T22:09:18.289Z,44.80
2019-03-12T22:11:45.362Z,45.30
2019-03-12T22:14:12.378Z,45.70
2019-03-12T22:16:39.500Z,45.20
2019-03-12T22:19:06.677Z,45.70
2019-03-12T22:21:38.905Z,46.10
2019-03-12T22:24:07.833Z,46.00
2019-03-12T22:26:35.122Z,46.40
2019-03-12T22:29:03.661Z,46.60
2019-03-12T22:31:30.782Z,46.90
2019-03-12T22:33:58.159Z,47.00
2019-03-12T22:36:25.365Z,46.50
2019-03-12T22:38:54.569Z,46.90
2019-03-12T22:41:22.578Z,47.70
2019-03-12T22:43:49.748Z,47.80
2019-03-12T22:46:16.644Z,48.10
2019-03-12T22:48:43.673Z,49.00
2019-03-12T22:51:15.223Z,51.90
2019-03-12T22:53:42.286Z,55.40
2019-03-12T22:56:09.217Z,57.40
2019-03-12T22:58:36.303Z,57.90
2019-03-12T23:01:03.400Z,59.50
2019-03-12T23:03:30.508Z,61.50
2019-03-12T23:05:57.514Z,62.60
2019-03-12T23:08:24.611Z,62.60
2019-03-12T23:10:52.574Z,63.10
2019-03-12T23:13:19.585Z,63.50
2019-03-12T23:15:46.566Z,63.60
2019-03-12T23:18:13.572Z,63.10
2019-03-12T23:20:40.636Z,63.20
2019-03-12T23:23:07.666Z,64.00
2019-03-12T23:25:34.755Z,64.30
2019-03-12T23:28:01.774Z,64.40
2019-03-12T23:30:29.167Z,64.70
2019-03-12T23:32:56.974Z,67.60
2019-03-12T23:35:24.474Z,70.50
2019-03-12T23:37:51.550Z,71.90
2019-03-12T23:40:18.776Z,73.60
2019-03-12T23:42:45.926Z,74.30
2019-03-12T23:45:13.969Z,76.20
2019-03-12T23:47:41.013Z,76.20
2019-03-12T23:50:08.640Z,76.00
2019-03-12T23:52:35.793Z,77.30
2019-03-12T23:55:03.455Z,77.60
2019-03-12T23:57:30.471Z,77.70
2019-03-12T23:59:57.844Z,78.90
